Time;durP1;ratioP1;P1;durP2;ratioP2;P2;SDS_P1;SDS_P2;PMS_P1;PMS_P2;Temp;Humidity;BMP_temperature;BMP_pressure;BME280_temperature;BME280_humidity;BME280_pressure;Samples;Min_cycle;Max_cycle;Signal;HPM_P1;HPM_P2
2021/09/13 00:00:08;;;;;;;7.05;3.40;;;;;;;;;;5104210;28;20020;-80
2021/09/13 00:02:34;;;;;;;5.63;3.15;;;;;;;;;;5096042;28;20016;-80
2021/09/13 00:05:00;;;;;;;3.83;3.38;;;;;;;;;;5097093;28;20061;-79
2021/09/13 00:07:26;;;;;;;7.40;3.55;;;;;;;;;;5096765;28;20501;-79
2021/09/13 00:09:52;;;;;;;6.72;3.42;;;;;;;;;;5081822;28;20021;-79
2021/09/13 00:12:18;;;;;;;4.55;3.47;;;;;;;;;;5082319;28;20025;-79
2021/09/13 00:14:44;;;;;;;6.20;3.40;;;;;;;;;;5086656;28;20054;-79
2021/09/13 00:17:10;;;;;;;4.47;3.22;;;;;;;;;;5098326;28;20134;-80
2021/09/13 00:19:37;;;;;;;3.47;2.92;;;;;;;;;;5096176;28;20532;-79
2021/09/13 00:22:03;;;;;;;4.68;3.65;;;;;;;;;;5096828;28;20107;-78
2021/09/13 00:24:29;;;;;;;4.40;3.58;;;;;;;;;;5077628;28;20028;-79
2021/09/13 00:26:55;;;;;;;5.40;3.70;;;;;;;;;;5096736;28;20039;-79
2021/09/13 00:29:21;;;;;;;4.55;3.70;;;;;;;;;;5096214;28;20106;-79
2021/09/13 00:31:47;;;;;;;5.50;3.60;;;;;;;;;;5097638;28;20028;-79
2021/09/13 00:34:14;;;;;;;7.40;3.60;;;;;;;;;;5097492;28;20107;-79
2021/09/13 00:36:40;;;;;;;6.50;3.45;;;;;;;;;;5095937;28;20095;-78
2021/09/13 00:39:06;;;;;;;4.63;3.40;;;;;;;;;;5095724;28;20059;-78
2021/09/13 00:41:32;;;;;;;4.20;3.80;;;;;;;;;;5096365;28;20033;-79
2021/09/13 00:43:58;;;;;;;4.47;3.38;;;;;;;;;;5082563;28;20113;-79
2021/09/13 00:46:24;;;;;;;5.28;3.88;;;;;;;;;;5075870;28;20048;-79
2021/09/13 00:48:50;;;;;;;6.32;4.53;;;;;;;;;;5075797;28;20489;-79
2021/09/13 00:51:17;;;;;;;5.32;3.60;;;;;;;;;;5075797;28;20084;-79
2021/09/13 00:53:43;;;;;;;5.85;3.80;;;;;;;;;;5092417;28;20498;-79
2021/09/13 00:56:09;;;;;;;4.43;3.72;;;;;;;;;;5096722;28;20040;-79
2021/09/13 00:58:35;;;;;;;5.53;3.55;;;;;;;;;;5095962;28;20058;-80
2021/09/13 01:01:02;;;;;;;5.07;3.97;;;;;;;;;;5095789;28;20024;-80
2021/09/13 01:03:28;;;;;;;4.63;3.97;;;;;;;;;;5084328;28;20052;-80
2021/09/13 01:05:54;;;;;;;4.97;4.30;;;;;;;;;;5075969;28;20082;-80
2021/09/13 01:08:20;;;;;;;7.03;4.32;;;;;;;;;;5076305;28;20481;-80
2021/09/13 01:10:48;;;;;;;6.05;3.60;;;;;;;;;;5080615;28;20040;-80
2021/09/13 01:13:14;;;;;;;6.22;3.88;;;;;;;;;;5101808;28;20488;-80
2021/09/13 01:15:40;;;;;;;5.68;4.10;;;;;;;;;;5082199;28;20468;-78
2021/09/13 01:18:06;;;;;;;4.78;4.15;;;;;;;;;;5103847;28;20028;-80
2021/09/13 01:20:33;;;;;;;5.80;4.18;;;;;;;;;;5099915;28;20025;-80
2021/09/13 01:23:02;;;;;;;7.10;4.50;;;;;;;;;;5098641;28;20024;-80
2021/09/13 01:25:27;;;;;;;6.00;5.15;;;;;;;;;;5112944;28;20396;-78
2021/09/13 01:27:53;;;;;;;6.85;5.05;;;;;;;;;;5112925;28;20032;-80
2021/09/13 01:30:20;;;;;;;6.03;4.88;;;;;;;;;;5095853;28;20040;-79
2021/09/13 01:32:46;;;;;;;6.38;4.93;;;;;;;;;;5096387;28;20089;-79
2021/09/13 01:35:12;;;;;;;7.95;5.28;;;;;;;;;;5096502;28;20028;-79
2021/09/13 01:37:38;;;;;;;4.70;4.18;;;;;;;;;;5081259;28;20032;-79
2021/09/13 01:40:04;;;;;;;6.00;4.78;;;;;;;;;;5088010;28;20076;-79
2021/09/13 01:42:30;;;;;;;5.57;4.97;;;;;;;;;;5079586;28;20469;-79
2021/09/13 01:44:56;;;;;;;7.10;4.50;;;;;;;;;;5080153;28;20025;-79
2021/09/13 01:47:22;;;;;;;6.32;4.88;;;;;;;;;;5079358;28;20044;-78
2021/09/13 01:49:48;;;;;;;7.20;4.97;;;;;;;;;;5078765;28;20029;-79
2021/09/13 01:52:14;;;;;;;6.95;5.13;;;;;;;;;;5080144;28;20028;-79
2021/09/13 01:54:40;;;;;;;5.75;4.22;;;;;;;;;;5099425;28;20032;-80
2021/09/13 01:57:06;;;;;;;5.68;4.45;;;;;;;;;;5098969;28;20032;-80
2021/09/13 01:59:32;;;;;;;9.95;4.88;;;;;;;;;;5098934;28;20548;-80
2021/09/13 02:01:58;;;;;;;6.15;4.65;;;;;;;;;;5099287;28;20024;-80
2021/09/13 02:04:24;;;;;;;7.85;5.38;;;;;;;;;;5098868;28;20028;-79
2021/09/13 02:06:50;;;;;;;5.13;4.60;;;;;;;;;;5099811;28;20476;-80
2021/09/13 02:09:16;;;;;;;9.18;5.35;;;;;;;;;;5079401;28;20085;-80
2021/09/13 02:11:43;;;;;;;6.18;5.30;;;;;;;;;;5078647;28;20032;-79
2021/09/13 02:14:09;;;;;;;9.07;5.07;;;;;;;;;;5078392;28;20041;-79
2021/09/13 02:16:35;;;;;;;6.50;5.00;;;;;;;;;;5078307;28;20135;-79
2021/09/13 02:19:01;;;;;;;7.25;5.63;;;;;;;;;;5060505;28;20519;-80
2021/09/13 02:21:27;;;;;;;6.25;5.15;;;;;;;;;;5078554;28;20025;-79
2021/09/13 02:23:53;;;;;;;7.90;5.53;;;;;;;;;;5093458;28;20024;-79
2021/09/13 02:26:19;;;;;;;5.70;5.00;;;;;;;;;;5099143;28;20024;-79
2021/09/13 02:28:45;;;;;;;8.63;5.05;;;;;;;;;;5098481;28;20028;-80
2021/09/13 02:31:11;;;;;;;7.22;5.32;;;;;;;;;;5097665;28;20032;-79
2021/09/13 02:33:37;;;;;;;8.07;5.50;;;;;;;;;;5098817;28;20035;-80
2021/09/13 02:36:03;;;;;;;7.15;5.20;;;;;;;;;;5098885;28;20020;-80
2021/09/13 02:38:29;;;;;;;6.43;4.55;;;;;;;;;;5087374;28;20432;-79
2021/09/13 02:40:56;;;;;;;5.05;4.55;;;;;;;;;;5077637;28;20025;-80
2021/09/13 02:43:22;;;;;;;7.55;6.03;;;;;;;;;;5079056;28;20025;-79
2021/09/13 02:45:48;;;;;;;10.73;5.88;;;;;;;;;;5078262;28;20036;-80
2021/09/13 02:48:14;;;;;;;7.80;5.68;;;;;;;;;;5058689;28;20035;-80
2021/09/13 02:50:40;;;;;;;6.40;5.40;;;;;;;;;;5060004;28;20029;-79
2021/09/13 02:53:05;;;;;;;6.88;5.25;;;;;;;;;;5091408;28;20035;-79
2021/09/13 02:55:31;;;;;;;6.65;5.65;;;;;;;;;;5098192;28;20503;-80
2021/09/13 02:57:57;;;;;;;8.57;6.35;;;;;;;;;;5098403;28;20115;-79
2021/09/13 03:00:24;;;;;;;8.80;6.93;;;;;;;;;;5097904;28;20031;-80
2021/09/13 03:02:50;;;;;;;8.90;6.90;;;;;;;;;;5089494;28;20400;-79
2021/09/13 03:05:16;;;;;;;8.10;7.05;;;;;;;;;;5077460;28;20516;-79
2021/09/13 03:07:42;;;;;;;7.47;6.75;;;;;;;;;;5059451;28;20099;-79
2021/09/13 03:10:08;;;;;;;8.85;6.75;;;;;;;;;;5089906;28;20411;-79
2021/09/13 03:12:35;;;;;;;8.48;6.28;;;;;;;;;;5097886;28;20392;-79
2021/09/13 03:15:01;;;;;;;9.40;6.20;;;;;;;;;;5098216;28;20062;-78
2021/09/13 03:17:27;;;;;;;8.48;6.13;;;;;;;;;;5097742;28;20028;-79
2021/09/13 03:19:53;;;;;;;7.47;5.70;;;;;;;;;;5097460;28;20388;-79
2021/09/13 03:22:19;;;;;;;8.45;5.90;;;;;;;;;;5108794;28;20028;-79
2021/09/13 03:24:45;;;;;;;7.78;6.20;;;;;;;;;;5108835;28;20036;-79
2021/09/13 03:27:11;;;;;;;6.70;5.45;;;;;;;;;;5084861;28;20086;-79
2021/09/13 03:29:37;;;;;;;6.82;5.80;;;;;;;;;;5077294;28;20033;-79
2021/09/13 03:32:03;;;;;;;8.07;5.60;;;;;;;;;;5077989;28;20399;-78
2021/09/13 03:34:30;;;;;;;6.10;5.50;;;;;;;;;;5077881;28;20024;-79
2021/09/13 03:36:59;;;;;;;8.90;5.60;;;;;;;;;;5076968;28;20025;-79
2021/09/13 03:39:25;;;;;;;8.60;6.10;;;;;;;;;;5076470;28;20099;-79
2021/09/13 03:41:51;;;;;;;7.78;6.45;;;;;;;;;;5077388;28;20048;-79
2021/09/13 03:44:17;;;;;;;7.50;6.70;;;;;;;;;;5078614;28;20054;-79
2021/09/13 03:46:43;;;;;;;10.25;7.18;;;;;;;;;;5077208;28;20025;-79
2021/09/13 03:49:09;;;;;;;9.13;6.40;;;;;;;;;;5085383;28;20051;-79
2021/09/13 03:51:35;;;;;;;9.27;7.03;;;;;;;;;;5090326;28;20021;-79
2021/09/13 03:54:01;;;;;;;8.98;6.90;;;;;;;;;;5103733;28;20028;-80
2021/09/13 03:56:28;;;;;;;9.70;7.68;;;;;;;;;;5094657;28;20035;-80
2021/09/13 03:58:54;;;;;;;8.30;7.38;;;;;;;;;;5076332;28;20020;-78
2021/09/13 04:01:20;;;;;;;9.95;6.80;;;;;;;;;;5078399;28;20043;-80
2021/09/13 04:03:46;;;;;;;7.43;6.25;;;;;;;;;;5076772;28;20389;-80
2021/09/13 04:11:48;;;;;;;10.45;6.47;;;;;;;;;;5076004;28;20047;-80
2021/09/13 04:14:15;;;;;;;8.35;6.18;;;;;;;;;;5076698;28;20374;-79
2021/09/13 04:16:41;;;;;;;8.48;5.68;;;;;;;;;;5093727;28;20546;-78
2021/09/13 04:19:07;;;;;;;8.43;5.57;;;;;;;;;;5077247;28;20039;-79
2021/09/13 04:21:33;;;;;;;8.05;5.45;;;;;;;;;;5097372;28;20028;-79
2021/09/13 04:23:59;;;;;;;7.93;6.18;;;;;;;;;;5096485;28;20024;-78
2021/09/13 04:26:25;;;;;;;8.00;6.60;;;;;;;;;;5097032;28;20023;-79
2021/09/13 04:28:51;;;;;;;8.07;5.95;;;;;;;;;;5096511;28;20496;-79
2021/09/13 04:31:17;;;;;;;9.60;6.15;;;;;;;;;;5076496;28;20060;-79
2021/09/13 04:33:43;;;;;;;7.18;5.90;;;;;;;;;;5080705;28;20024;-79
2021/09/13 04:36:09;;;;;;;6.60;5.68;;;;;;;;;;5075635;28;20052;-79
2021/09/13 04:38:35;;;;;;;6.25;5.65;;;;;;;;;;5076015;28;20036;-79
2021/09/13 04:41:01;;;;;;;7.10;5.70;;;;;;;;;;5079094;28;20016;-79
2021/09/13 04:43:27;;;;;;;6.10;5.10;;;;;;;;;;5099098;28;20028;-80
2021/09/13 04:45:53;;;;;;;7.15;4.70;;;;;;;;;;5090350;28;20080;-79
2021/09/13 04:48:19;;;;;;;6.93;5.32;;;;;;;;;;5083466;28;20544;-79
2021/09/13 04:50:45;;;;;;;7.07;5.07;;;;;;;;;;5068166;28;20078;-78
2021/09/13 04:53:11;;;;;;;6.35;4.43;;;;;;;;;;5085159;28;20044;-77
2021/09/13 04:55:37;;;;;;;7.90;4.60;;;;;;;;;;5076594;28;20055;-79
2021/09/13 04:58:04;;;;;;;10.25;5.13;;;;;;;;;;5070883;28;20032;-79
2021/09/13 05:00:30;;;;;;;6.57;4.57;;;;;;;;;;5071625;28;20056;-77
2021/09/13 05:02:56;;;;;;;5.07;4.53;;;;;;;;;;5054375;28;20051;-78
2021/09/13 05:05:22;;;;;;;7.13;4.40;;;;;;;;;;5070127;28;20048;-79
2021/09/13 05:07:48;;;;;;;5.95;5.35;;;;;;;;;;5070893;28;20033;-78
2021/09/13 05:10:14;;;;;;;5.80;5.20;;;;;;;;;;5069044;28;20040;-78
2021/09/13 05:12:40;;;;;;;7.82;5.40;;;;;;;;;;5082140;28;20024;-79
2021/09/13 05:15:07;;;;;;;6.55;5.90;;;;;;;;;;5094418;28;20125;-80
2021/09/13 05:17:33;;;;;;;8.07;5.82;;;;;;;;;;5063952;28;20044;-79
2021/09/13 05:19:59;;;;;;;9.95;6.20;;;;;;;;;;5061389;28;20028;-78
2021/09/13 05:22:25;;;;;;;6.20;5.35;;;;;;;;;;5082328;28;20032;-79
2021/09/13 05:24:51;;;;;;;7.22;5.97;;;;;;;;;;5077802;28;20043;-79
2021/09/13 05:27:17;;;;;;;8.45;5.80;;;;;;;;;;5075922;28;20085;-77
2021/09/13 05:29:42;;;;;;;6.97;5.97;;;;;;;;;;5076687;28;20120;-80
2021/09/13 05:32:08;;;;;;;7.80;6.53;;;;;;;;;;5075884;28;20046;-80
2021/09/13 05:34:34;;;;;;;7.88;6.47;;;;;;;;;;5076427;28;20029;-80
2021/09/13 05:37:00;;;;;;;9.05;6.18;;;;;;;;;;5076200;28;20021;-80
2021/09/13 05:39:26;;;;;;;7.38;6.40;;;;;;;;;;5096837;28;20108;-80
2021/09/13 05:41:52;;;;;;;7.30;6.13;;;;;;;;;;5097004;28;20340;-78
2021/09/13 05:44:18;;;;;;;16.00;6.65;;;;;;;;;;5087180;28;20028;-78
2021/09/13 05:46:45;;;;;;;6.93;5.95;;;;;;;;;;5073395;28;20028;-77
2021/09/13 05:49:11;;;;;;;8.65;6.72;;;;;;;;;;5092872;28;20416;-79
2021/09/13 05:51:45;;;;;;;10.05;6.32;;;;;;;;;;5092628;28;20020;-77
2021/09/13 05:54:11;;;;;;;10.60;6.07;;;;;;;;;;5075716;28;20028;-77
2021/09/13 05:56:37;;;;;;;9.60;6.47;;;;;;;;;;5072154;28;20025;-78
2021/09/13 05:59:03;;;;;;;7.68;6.55;;;;;;;;;;5071837;28;20055;-78
2021/09/13 06:01:29;;;;;;;8.40;6.43;;;;;;;;;;5078341;28;20021;-81
2021/09/13 06:03:55;;;;;;;8.15;6.03;;;;;;;;;;5098666;28;20020;-79
2021/09/13 06:06:21;;;;;;;8.57;5.78;;;;;;;;;;5099504;28;20438;-79
2021/09/13 06:08:47;;;;;;;6.22;5.32;;;;;;;;;;5098320;28;20027;-78
2021/09/13 06:11:13;;;;;;;6.18;5.57;;;;;;;;;;5089440;28;20040;-77
2021/09/13 06:13:40;;;;;;;9.68;5.53;;;;;;;;;;5083644;28;20085;-77
2021/09/13 06:16:08;;;;;;;10.18;5.50;;;;;;;;;;5096814;28;20024;-79
2021/09/13 06:18:37;;;;;;;10.05;5.43;;;;;;;;;;5085681;28;20099;-81
2021/09/13 06:21:03;;;;;;;7.20;4.93;;;;;;;;;;5082828;28;20043;-78
2021/09/13 06:23:29;;;;;;;8.88;5.32;;;;;;;;;;5079505;28;20028;-80
2021/09/13 06:25:55;;;;;;;7.30;5.60;;;;;;;;;;5079184;28;20030;-81
2021/09/13 06:28:21;;;;;;;9.95;5.80;;;;;;;;;;5081843;28;20111;-78
2021/09/13 06:30:48;;;;;;;5.47;4.95;;;;;;;;;;5074155;28;20067;-80
2021/09/13 06:33:14;;;;;;;7.85;5.10;;;;;;;;;;5077710;28;20753;-81
2021/09/13 06:35:40;;;;;;;6.97;5.20;;;;;;;;;;5081276;28;20047;-81
2021/09/13 06:38:06;;;;;;;5.57;4.72;;;;;;;;;;5080681;28;20024;-81
2021/09/13 06:40:32;;;;;;;7.00;5.53;;;;;;;;;;5077649;28;20023;-79
2021/09/13 06:42:58;;;;;;;5.82;4.63;;;;;;;;;;5076997;28;20025;-81
2021/09/13 06:45:24;;;;;;;6.50;5.00;;;;;;;;;;5076471;28;20036;-81
2021/09/13 06:47:50;;;;;;;6.85;5.25;;;;;;;;;;5079826;28;20109;-79
2021/09/13 06:50:18;;;;;;;7.75;5.43;;;;;;;;;;5074049;28;20029;-77
2021/09/13 06:52:45;;;;;;;7.85;5.03;;;;;;;;;;5056213;28;20028;-77
2021/09/13 06:55:11;;;;;;;6.93;5.60;;;;;;;;;;5089098;28;20320;-77
2021/09/13 06:57:38;;;;;;;8.77;5.78;;;;;;;;;;5072133;28;20040;-77
2021/09/13 07:00:08;;;;;;;7.47;5.95;;;;;;;;;;5068407;28;20028;-77
2021/09/13 07:02:34;;;;;;;7.80;6.38;;;;;;;;;;5068553;28;20024;-78
2021/09/13 07:05:00;;;;;;;13.07;7.07;;;;;;;;;;5070425;28;20130;-77
2021/09/13 07:07:26;;;;;;;9.90;6.55;;;;;;;;;;5069826;28;20024;-77
2021/09/13 07:09:52;;;;;;;10.52;6.50;;;;;;;;;;5070090;28;20037;-78
2021/09/13 07:12:19;;;;;;;9.70;5.95;;;;;;;;;;5070503;28;20050;-78
2021/09/13 07:14:46;;;;;;;7.43;6.05;;;;;;;;;;5052648;28;20028;-77
2021/09/13 07:17:12;;;;;;;8.65;5.90;;;;;;;;;;5074395;28;20021;-78
2021/09/13 07:19:39;;;;;;;7.63;5.72;;;;;;;;;;5056728;28;20125;-77
2021/09/13 07:22:05;;;;;;;11.73;6.25;;;;;;;;;;5084980;28;20119;-77
2021/09/13 07:24:31;;;;;;;10.43;5.95;;;;;;;;;;5089109;28;20056;-78
2021/09/13 07:26:57;;;;;;;12.65;6.80;;;;;;;;;;5086705;28;20044;-77
2021/09/13 07:29:22;;;;;;;9.68;6.15;;;;;;;;;;5072404;28;20115;-78
2021/09/13 07:31:48;;;;;;;8.63;5.97;;;;;;;;;;5072055;28;20052;-78
2021/09/13 07:34:14;;;;;;;11.65;6.15;;;;;;;;;;5079716;28;20036;-77
2021/09/13 07:36:40;;;;;;;9.40;6.38;;;;;;;;;;5092656;28;20401;-78
2021/09/13 07:39:06;;;;;;;9.48;5.75;;;;;;;;;;5074151;28;20031;-78
2021/09/13 07:41:32;;;;;;;6.95;5.20;;;;;;;;;;5093838;28;20081;-77
2021/09/13 07:43:59;;;;;;;6.00;4.47;;;;;;;;;;5088607;28;20474;-78
2021/09/13 07:46:25;;;;;;;9.40;4.95;;;;;;;;;;5074275;28;20028;-78
2021/09/13 07:48:51;;;;;;;7.95;4.47;;;;;;;;;;5089276;28;20472;-77
2021/09/13 07:51:17;;;;;;;7.30;4.50;;;;;;;;;;5094254;28;20032;-77
2021/09/13 07:53:43;;;;;;;9.23;5.03;;;;;;;;;;5081735;28;20078;-76
2021/09/13 07:56:09;;;;;;;7.80;4.50;;;;;;;;;;5074075;28;20021;-80
2021/09/13 07:58:35;;;;;;;5.60;4.50;;;;;;;;;;5068071;28;20488;-75
2021/09/13 08:01:01;;;;;;;9.15;4.32;;;;;;;;;;5067961;28;20427;-77
2021/09/13 08:03:27;;;;;;;9.18;3.72;;;;;;;;;;5067671;28;20032;-77
2021/09/13 08:05:53;;;;;;;5.75;4.13;;;;;;;;;;5049855;28;20074;-78
2021/09/13 08:08:19;;;;;;;5.18;4.00;;;;;;;;;;5079584;28;20036;-77
2021/09/13 08:10:45;;;;;;;6.88;4.32;;;;;;;;;;5075481;28;20571;-78
2021/09/13 08:13:11;;;;;;;5.90;4.10;;;;;;;;;;5080562;28;20033;-77
2021/09/13 08:15:37;;;;;;;8.15;4.13;;;;;;;;;;5067445;28;20079;-77
2021/09/13 08:18:03;;;;;;;8.35;3.38;;;;;;;;;;5067276;28;20025;-77
2021/09/13 08:20:29;;;;;;;6.15;3.58;;;;;;;;;;5068691;28;20485;-77
2021/09/13 08:22:56;;;;;;;4.60;3.70;;;;;;;;;;5078385;28;20026;-77
2021/09/13 08:25:22;;;;;;;6.28;3.78;;;;;;;;;;5091435;28;20515;-77
2021/09/13 08:27:48;;;;;;;6.43;4.18;;;;;;;;;;5091697;28;20085;-76
2021/09/13 08:30:14;;;;;;;7.97;4.57;;;;;;;;;;5091068;28;20477;-77
2021/09/13 08:32:42;;;;;;;7.30;3.22;;;;;;;;;;5091681;28;20071;-77
2021/09/13 08:35:08;;;;;;;6.03;3.40;;;;;;;;;;5091606;28;20032;-77
2021/09/13 08:37:34;;;;;;;8.80;3.50;;;;;;;;;;5091710;28;20443;-77
2021/09/13 08:40:00;;;;;;;7.63;3.45;;;;;;;;;;5072896;28;20084;-77
2021/09/13 08:42:27;;;;;;;6.55;3.60;;;;;;;;;;5078383;28;20489;-76
2021/09/13 08:44:57;;;;;;;5.50;3.42;;;;;;;;;;5071546;28;20035;-76
2021/09/13 08:47:37;;;;;;;8.18;3.35;;;;;;;;;;5074290;28;20051;-76
2021/09/13 08:50:21;;;;;;;5.13;2.90;;;;;;;;;;5074819;28;20035;-76
2021/09/13 08:52:49;;;;;;;7.13;3.53;;;;;;;;;;5080937;28;20032;-77
2021/09/13 08:55:15;;;;;;;6.78;2.90;;;;;;;;;;5095259;28;20430;-77
2021/09/13 08:57:41;;;;;;;5.75;2.70;;;;;;;;;;5095525;28;20074;-77
2021/09/13 09:00:07;;;;;;;5.03;3.08;;;;;;;;;;5094718;28;20028;-77
2021/09/13 09:02:34;;;;;;;5.05;3.15;;;;;;;;;;5075312;28;20017;-77
2021/09/13 09:05:01;;;;;;;5.70;2.70;;;;;;;;;;5090626;28;20028;-76
2021/09/13 09:07:28;;;;;;;5.47;2.80;;;;;;;;;;5093591;28;20107;-77
2021/09/13 09:10:10;;;;;;;4.03;2.97;;;;;;;;;;5075810;28;20028;-77
2021/09/13 09:12:55;;;;;;;4.85;2.55;;;;;;;;;;5095360;28;20541;-76
2021/09/13 09:15:21;;;;;;;4.47;2.83;;;;;;;;;;5094919;28;20035;-77
2021/09/13 09:17:53;;;;;;;8.43;2.70;;;17.60;99.90;;;;;;5094988;28;20020;-77
2021/09/13 09:20:18;;;;;;;5.22;2.65;;;22.60;99.90;;;;;;5094603;28;20028;-77
2021/09/13 09:22:45;;;;;;;4.70;2.40;;;22.40;99.90;;;;;;5094558;28;20488;-77
2021/09/13 09:25:24;;;;;;;4.25;2.50;;;;;;;;;;5094497;28;20035;-77
2021/09/13 09:27:55;;;;;;;4.43;2.38;;;;;;;;;;5095043;28;20028;-77
2021/09/13 09:30:21;;;;;;;4.05;2.17;;;;;;;;;;5094180;28;20389;-76
2021/09/13 09:33:11;;;;;;;3.83;2.10;;;22.80;99.90;;;;;;5095039;28;20097;-77
2021/09/13 09:35:41;;;;;;;4.60;2.28;;;;;;;;;;5084443;28;20465;-77
2021/09/13 09:38:08;;;;;;;3.47;2.45;;;;;;;;;;5074582;28;20028;-77
2021/09/13 09:40:34;;;;;;;3.80;1.90;;;;;;;;;;5073508;28;20036;-77
2021/09/13 09:43:04;;;;;;;2.95;1.85;;;25.50;99.90;;;;;;5056539;28;20025;-77
2021/09/13 09:45:30;;;;;;;4.93;2.42;;;;;;;;;;5074452;28;20059;-77
2021/09/13 09:48:06;;;;;;;2.92;2.10;;;;;;;;;;5074256;28;20458;-77
2021/09/13 09:50:33;;;;;;;5.25;2.20;;;;;;;;;;5073834;28;20031;-78
2021/09/13 09:53:19;;;;;;;3.58;2.17;;;;;;;;;;5081668;28;20093;-77
2021/09/13 09:55:50;;;;;;;5.63;1.90;;;;;;;;;;5094421;28;20094;-77
2021/09/13 09:58:16;;;;;;;3.50;1.88;;;;;;;;;;5094371;28;20024;-75
2021/09/13 10:00:46;;;;;;;3.60;2.10;;;;;;;;;;5093893;28;20381;-77
2021/09/13 10:03:27;;;;;;;5.07;1.90;;;;;;;;;;5091062;28;20393;-77
2021/09/13 10:05:53;;;;;;;6.57;2.20;;;27.60;98.90;;;;;;5074167;28;20020;-77
2021/09/13 10:08:18;;;;;;;4.35;2.00;;;29.40;91.40;;;;;;5074065;28;20124;-77
2021/09/13 10:10:44;;;;;;;2.90;1.70;;;29.50;90.20;;;;;;5074002;28;20086;-77
2021/09/13 10:13:10;;;;;;;4.85;2.13;;;29.40;90.00;;;;;;5082557;28;20032;-83
2021/09/13 10:15:35;;;;;;;5.68;2.13;;;29.50;89.20;;;;;;5069244;28;20039;-83
2021/09/13 10:18:01;;;;;;;3.47;2.00;;;29.40;88.70;;;;;;5037145;28;20025;-84
2021/09/13 10:20:27;;;;;;;2.33;1.55;;;28.90;86.90;;;;;;5069587;28;20028;-79
2021/09/13 10:22:55;;;;;;;4.80;2.33;;;28.90;89.00;;;;;;5077453;28;20033;-79
2021/09/13 10:25:21;;;;;;;4.93;2.15;;;28.40;89.10;;;;;;5077419;28;20032;-80
2021/09/13 10:27:47;;;;;;;2.83;1.70;;;27.60;90.50;;;;;;5075530;28;20029;-79
2021/09/13 10:30:19;;;;;;;3.47;2.05;;;27.50;91.50;;;;;;5061090;28;20029;-80
2021/09/13 10:33:08;;;;;;;3.30;2.03;;;27.00;91.90;;;;;;5078116;28;20485;-79
2021/09/13 10:35:57;;;;;;;5.07;2.00;;;26.80;92.80;;;;;;5077483;28;20037;-79
2021/09/13 10:38:41;;;;;;;3.05;2.10;;;26.60;92.80;;;;;;5076564;28;20020;-79
2021/09/13 10:41:07;;;;;;;2.45;2.10;;;26.50;92.80;;;;;;5075550;28;20020;-79
2021/09/13 10:43:32;;;;;;;2.85;1.70;;;26.50;93.70;;;;;;5084914;28;20051;-80
2021/09/13 10:45:58;;;;;;;4.25;2.08;;;26.50;93.90;;;;;;5083054;28;20056;-80
2021/09/13 10:48:24;;;;;;;4.05;2.00;;;26.80;93.10;;;;;;5074574;28;20029;-80
2021/09/13 10:50:54;;;;;;;2.78;1.98;;;26.50;93.50;;;;;;5073636;28;20550;-80
2021/09/13 10:53:20;;;;;;;2.33;1.98;;;26.80;93.40;;;;;;5069194;28;20032;-80
2021/09/13 10:55:46;;;;;;;5.65;2.10;;;26.80;93.90;;;;;;5075499;28;20313;-80
2021/09/13 10:58:19;;;;;;;3.85;1.98;;;26.60;93.40;;;;;;5075351;28;20390;-80
2021/09/13 11:00:45;;;;;;;5.78;1.75;;;26.50;94.20;;;;;;5056689;28;20021;-80
2021/09/13 11:03:23;;;;;;;3.20;1.77;;;26.60;93.50;;;;;;5075801;28;20369;-80
2021/09/13 11:06:13;;;;;;;2.53;1.58;;;26.30;93.70;;;;;;5075683;28;20028;-80
2021/09/13 11:08:38;;;;;;;2.88;1.77;;;25.90;93.70;;;;;;5064306;28;20040;-80
2021/09/13 11:11:23;;;;;;;3.15;2.00;;;26.10;93.90;;;;;;5075199;28;20028;-80
2021/09/13 11:14:00;;;;;;;3.63;1.67;;;26.10;93.70;;;;;;5075606;28;20024;-80
2021/09/13 11:16:27;;;;;;;2.40;1.40;;;26.50;93.20;;;;;;5097944;28;20053;-79
2021/09/13 11:18:54;;;;;;;4.35;1.70;;;26.60;92.80;;;;;;5096403;28;20028;-80
2021/09/13 11:21:19;;;;;;;1.77;1.38;;;27.30;91.50;;;;;;5095361;28;20031;-79
2021/09/13 11:23:46;;;;;;;2.78;1.40;;;27.20;90.30;;;;;;5088021;28;20021;-79
2021/09/13 11:26:19;;;;;;;3.35;1.77;;;27.30;90.20;;;;;;5077552;28;20077;-80
2021/09/13 11:28:56;;;;;;;2.42;1.48;;;27.30;90.80;;;;;;5074543;28;20035;-82
2021/09/13 11:31:27;;;;;;;5.15;1.60;;;27.30;90.10;;;;;;5057267;28;20029;-82
2021/09/13 11:33:54;;;;;;;3.53;1.60;;;27.80;90.90;;;;;;5075685;28;20021;-82
2021/09/13 11:36:24;;;;;;;3.03;1.60;;;28.00;88.90;;;;;;5075062;28;20036;-83
2021/09/13 11:39:07;;;;;;;3.20;1.35;;;;;;;;;;5076687;28;20028;-83
2021/09/13 11:41:34;;;;;;;2.38;1.50;;;28.00;89.80;;;;;;5094118;28;20020;-82
2021/09/13 11:44:05;;;;;;;2.67;1.38;;;28.00;88.10;;;;;;5099364;28;20024;-83
2021/09/13 11:46:32;;;;;;;2.95;1.55;;;28.40;85.20;;;;;;5093587;28;20057;-83
2021/09/13 11:49:15;;;;;;;3.65;1.40;;;28.80;85.00;;;;;;5096019;28;20081;-82
2021/09/13 11:51:59;;;;;;;1.83;1.48;;;28.80;85.80;;;;;;5090483;28;20016;-82
2021/09/13 11:54:25;;;;;;;2.90;1.65;;;29.10;84.50;;;;;;5092900;28;20032;-82
2021/09/13 11:56:51;;;;;;;3.42;1.35;;;28.50;84.70;;;;;;5103623;28;20031;-83
2021/09/13 11:59:24;;;;;;;2.20;1.50;;;28.40;85.10;;;;;;5115397;28;20402;-81
2021/09/13 12:02:16;;;;;;;1.80;1.20;;;28.50;84.70;;;;;;5115763;28;20023;-82
2021/09/13 12:04:44;;;;;;;3.85;1.40;;;28.70;83.60;;;;;;5091482;28;20039;-82
2021/09/13 12:07:13;;;;;;;1.70;1.33;;;28.80;83.80;;;;;;5066932;28;20036;-81
2021/09/13 12:09:41;;;;;;;2.03;1.40;;;28.80;82.60;;;;;;5092280;28;20043;-81
2021/09/13 12:12:11;;;;;;;2.70;1.55;;;28.80;81.70;;;;;;5069913;28;20028;-82
2021/09/13 12:14:39;;;;;;;3.00;1.38;;;28.90;81.00;;;;;;5075971;28;20034;-82
2021/09/13 12:17:14;;;;;;;5.60;1.50;;;29.00;82.10;;;;;;5092227;28;20539;-81
2021/09/13 12:19:42;;;;;;;2.60;1.50;;;29.10;82.00;;;;;;5080065;28;20445;-82
2021/09/13 12:22:09;;;;;;;2.15;1.63;;;29.20;81.10;;;;;;5081302;28;20024;-82
2021/09/13 12:24:36;;;;;;;4.38;1.40;;;29.30;80.30;;;;;;5084628;28;20496;-82
2021/09/13 12:27:20;;;;;;;2.13;1.38;;;29.30;80.70;;;;;;5076912;28;20032;-82
2021/09/13 12:30:02;;;;;;;3.97;1.40;;;29.40;79.70;;;;;;5090729;28;20021;-82
2021/09/13 12:32:31;;;;;;;2.63;1.45;;;29.30;79.20;;;;;;5075791;28;20025;-82
2021/09/13 12:35:01;;;;;;;4.03;1.45;;;29.10;78.30;;;;;;5086024;28;20024;-82
2021/09/13 12:37:29;;;;;;;3.67;1.45;;;29.60;79.30;;;;;;5076023;28;20086;-82
2021/09/13 12:40:11;;;;;;;2.75;1.42;;;28.70;78.50;;;;;;5086900;28;20058;-82
2021/09/13 12:42:56;;;;;;;3.38;1.98;;;29.80;78.30;;;;;;5091274;28;20020;-82
2021/09/13 12:45:27;;;;;;;4.00;1.48;;;29.70;76.50;;;;;;5072448;28;20035;-82
2021/09/13 12:48:06;;;;;;;2.10;1.30;;;30.10;77.30;;;;;;5090542;28;20059;-82
2021/09/13 12:50:51;;;;;;;1.92;1.30;;;30.10;76.10;;;;;;5057867;28;20020;-82
2021/09/13 12:53:35;;;;;;;3.05;1.67;;;30.40;75.80;;;;;;5080073;28;20072;-82
2021/09/13 12:56:13;;;;;;;3.38;1.40;;;30.40;75.10;;;;;;5073914;28;20524;-82
2021/09/13 12:58:39;;;;;;;2.85;1.45;;;30.50;74.70;;;;;;5072643;28;20032;-82
2021/09/13 13:01:07;;;;;;;2.22;1.40;;;30.60;74.50;;;;;;5092681;28;20028;-82
2021/09/13 13:03:34;;;;;;;2.33;1.50;;;31.10;74.80;;;;;;5083190;28;20028;-82
2021/09/13 13:06:11;;;;;;;3.33;1.45;;;30.60;74.10;;;;;;5083388;28;20126;-82
2021/09/13 13:08:37;;;;;;;2.22;1.25;;;;;;;;;;5092621;28;20054;-82
2021/09/13 13:11:03;;;;;;;1.70;1.25;;;;;;;;;;5071195;28;20029;-82
2021/09/13 13:13:29;;;;;;;2.65;1.42;;;;;;;;;;5075475;28;20028;-82
2021/09/13 13:15:55;;;;;;;2.17;1.35;;;;;;;;;;5092411;28;20086;-82
2021/09/13 13:18:23;;;;;;;1.55;1.27;;;;;;;;;;5092097;28;20077;-82
2021/09/13 13:20:49;;;;;;;2.75;1.35;;;;;;;;;;5089792;28;20020;-82
2021/09/13 13:23:15;;;;;;;4.35;1.25;;;30.60;74.10;;;;;;5090830;28;20039;-82
2021/09/13 13:25:47;;;;;;;2.22;1.45;;;32.90;69.40;;;;;;5092534;28;20055;-82
2021/09/13 13:28:13;;;;;;;2.60;1.40;;;32.20;69.00;;;;;;5093162;28;20024;-83
2021/09/13 13:30:40;;;;;;;3.00;1.50;;;32.50;68.50;;;;;;5088878;28;20274;-82
2021/09/13 13:33:07;;;;;;;2.63;1.40;;;33.10;67.30;;;;;;5074919;28;20035;-83
2021/09/13 13:35:37;;;;;;;4.85;1.52;;;;;;;;;;5076909;28;20017;-83
2021/09/13 13:38:04;;;;;;;3.05;1.30;;;33.60;66.60;;;;;;5060091;28;20059;-82
2021/09/13 13:40:31;;;;;;;2.00;1.50;;;34.40;64.30;;;;;;5079345;28;20028;-82
2021/09/13 13:42:57;;;;;;;3.13;1.50;;;34.80;63.00;;;;;;5078068;28;20024;-81
2021/09/13 13:45:23;;;;;;;1.27;1.17;;;35.20;61.70;;;;;;5092734;28;20020;-81
2021/09/13 13:47:51;;;;;;;5.10;1.73;;;35.50;60.60;;;;;;5096697;28;20111;-82
2021/09/13 13:50:17;;;;;;;3.03;1.30;;;36.30;59.00;;;;;;5095957;28;20031;-82
2021/09/13 13:52:45;;;;;;;1.52;1.30;;;35.60;59.00;;;;;;5095365;28;20028;-82
2021/09/13 13:55:11;;;;;;;2.65;1.60;;;36.10;58.60;;;;;;5096015;28;20076;-82
2021/09/13 13:57:37;;;;;;;2.58;1.27;;;36.30;57.70;;;;;;5092220;28;20774;-82
2021/09/13 14:00:09;;;;;;;1.98;1.38;;;35.80;59.50;;;;;;5066983;28;20507;-82
2021/09/13 14:02:34;;;;;;;6.63;1.48;;;34.90;59.20;;;;;;5078481;28;20092;-82
2021/09/13 14:05:00;;;;;;;2.08;1.50;;;31.70;57.70;;;;;;5078787;28;20083;-82
2021/09/13 14:07:26;;;;;;;2.42;1.35;;;33.10;60.20;;;;;;5078996;28;20031;-82
2021/09/13 14:09:51;;;;;;;1.65;1.33;;;32.40;61.70;;;;;;5078819;28;20032;-82
2021/09/13 14:12:17;;;;;;;2.20;1.17;;;32.30;62.20;;;;;;5078824;28;20432;-82
2021/09/13 14:14:43;;;;;;;2.10;1.45;;;32.60;61.90;;;;;;5099065;28;20510;-82